sensor_id;sensor_type;location;lat;lon;timestamp;pressure;altitude;pressure_sealevel;temperature;humidity
6464;BME280;3265;42.694;23.282;2023-11-19T00:01:20;73490.31;;;-143.21;73.07
6464;BME280;3265;42.694;23.282;2023-11-19T00:03:47;73500.25;;;-143.21;73.04
6464;BME280;3265;42.694;23.282;2023-11-19T00:06:15;73512.16;;;-143.21;73.24
6464;BME280;3265;42.694;23.282;2023-11-19T00:08:42;73508.19;;;-143.21;73.20
6464;BME280;3265;42.694;23.282;2023-11-19T00:11:09;73488.34;;;-143.21;72.91
6464;BME280;3265;42.694;23.282;2023-11-19T00:13:36;73494.28;;;-143.21;73.06
6464;BME280;3265;42.694;23.282;2023-11-19T00:16:04;73494.28;;;-143.21;73.11
6464;BME280;3265;42.694;23.282;2023-11-19T00:18:34;73494.28;;;-143.21;73.02
6464;BME280;3265;42.694;23.282;2023-11-19T00:21:01;73486.34;;;-143.21;72.87
6464;BME280;3265;42.694;23.282;2023-11-19T00:23:28;73508.19;;;-143.21;73.12
6464;BME280;3265;42.694;23.282;2023-11-19T00:25:55;73494.28;;;-143.21;72.91
6464;BME280;3265;42.694;23.282;2023-11-19T00:28:22;73480.41;;;-143.21;72.41
6464;BME280;3265;42.694;23.282;2023-11-19T00:30:49;73494.28;;;-143.21;72.37
6464;BME280;3265;42.694;23.282;2023-11-19T00:33:17;73480.41;;;-143.21;72.26
6464;BME280;3265;42.694;23.282;2023-11-19T00:35:46;73486.34;;;-143.21;72.58
6464;BME280;3265;42.694;23.282;2023-11-19T00:38:14;73492.31;;;-143.21;72.57
6464;BME280;3265;42.694;23.282;2023-11-19T00:40:40;73486.34;;;-143.21;72.18
6464;BME280;3265;42.694;23.282;2023-11-19T00:43:07;73504.22;;;-143.21;72.75
6464;BME280;3265;42.694;23.282;2023-11-19T00:45:34;73508.19;;;-143.21;72.76
6464;BME280;3265;42.694;23.282;2023-11-19T00:48:01;73512.16;;;-143.21;73.02
6464;BME280;3265;42.694;23.282;2023-11-19T00:50:28;73514.13;;;-143.21;72.75
6464;BME280;3265;42.694;23.282;2023-11-19T00:52:56;73524.06;;;-143.21;73.30
6464;BME280;3265;42.694;23.282;2023-11-19T00:55:23;73516.13;;;-143.21;73.50
6464;BME280;3265;42.694;23.282;2023-11-19T00:57:55;73518.09;;;-143.21;73.29
6464;BME280;3265;42.694;23.282;2023-11-19T01:00:28;73516.13;;;-143.21;73.08
6464;BME280;3265;42.694;23.282;2023-11-19T01:02:57;73526.03;;;-143.21;73.53
6464;BME280;3265;42.694;23.282;2023-11-19T01:05:25;73522.06;;;-143.21;73.51
6464;BME280;3265;42.694;23.282;2023-11-19T01:07:53;73520.09;;;-143.21;73.37
6464;BME280;3265;42.694;23.282;2023-11-19T01:10:22;73518.09;;;-143.21;73.59
6464;BME280;3265;42.694;23.282;2023-11-19T01:12:49;73512.16;;;-143.21;73.32
6464;BME280;3265;42.694;23.282;2023-11-19T01:15:16;73514.13;;;-143.21;73.32
6464;BME280;3265;42.694;23.282;2023-11-19T01:17:46;73508.19;;;-143.21;73.21
6464;BME280;3265;42.694;23.282;2023-11-19T01:20:12;73508.19;;;-143.21;72.76
6464;BME280;3265;42.694;23.282;2023-11-19T01:22:40;73526.03;;;-143.21;73.34
6464;BME280;3265;42.694;23.282;2023-11-19T01:25:07;73518.09;;;-143.21;73.44
6464;BME280;3265;42.694;23.282;2023-11-19T01:27:36;73520.09;;;-143.21;72.98
6464;BME280;3265;42.694;23.282;2023-11-19T01:30:03;73510.16;;;-143.21;73.19
6464;BME280;3265;42.694;23.282;2023-11-19T01:32:31;73518.09;;;-143.21;72.94
6464;BME280;3265;42.694;23.282;2023-11-19T01:34:58;73530.00;;;-143.21;72.53
6464;BME280;3265;42.694;23.282;2023-11-19T01:37:25;73528.03;;;-143.21;72.10
6464;BME280;3265;42.694;23.282;2023-11-19T01:39:52;73543.88;;;-143.21;72.33
6464;BME280;3265;42.694;23.282;2023-11-19T01:42:19;73541.91;;;-143.21;72.29
6464;BME280;3265;42.694;23.282;2023-11-19T01:44:57;73533.97;;;-143.21;72.10
6464;BME280;3265;42.694;23.282;2023-11-19T01:47:25;73537.94;;;-143.21;72.15
6464;BME280;3265;42.694;23.282;2023-11-19T01:49:52;73547.84;;;-143.21;72.29
6464;BME280;3265;42.694;23.282;2023-11-19T01:52:19;73553.81;;;-143.21;72.25
6464;BME280;3265;42.694;23.282;2023-11-19T01:54:47;73555.78;;;-143.21;72.13
6464;BME280;3265;42.694;23.282;2023-11-19T01:57:14;73565.72;;;-143.21;71.66
6464;BME280;3265;42.694;23.282;2023-11-19T01:59:42;73567.69;;;-143.21;71.85
6464;BME280;3265;42.694;23.282;2023-11-19T02:02:11;73563.72;;;-143.21;71.24
6464;BME280;3265;42.694;23.282;2023-11-19T02:04:38;73565.72;;;-143.21;70.83
6464;BME280;3265;42.694;23.282;2023-11-19T02:07:06;73551.81;;;-143.21;71.07
6464;BME280;3265;42.694;23.282;2023-11-19T02:09:34;73530.00;;;-143.21;70.94
6464;BME280;3265;42.694;23.282;2023-11-19T02:12:01;73524.06;;;-143.21;70.57
6464;BME280;3265;42.694;23.282;2023-11-19T02:14:28;73539.91;;;-143.21;70.91
6464;BME280;3265;42.694;23.282;2023-11-19T02:16:56;73537.94;;;-143.21;70.96
6464;BME280;3265;42.694;23.282;2023-11-19T02:19:24;73537.94;;;-143.21;70.79
6464;BME280;3265;42.694;23.282;2023-11-19T02:21:51;73543.88;;;-143.21;71.00
6464;BME280;3265;42.694;23.282;2023-11-19T02:24:20;73535.94;;;-143.21;70.90
6464;BME280;3265;42.694;23.282;2023-11-19T02:26:54;73533.97;;;-143.21;70.93
6464;BME280;3265;42.694;23.282;2023-11-19T02:29:25;73549.84;;;-143.21;70.74
6464;BME280;3265;42.694;23.282;2023-11-19T02:31:52;73535.94;;;-143.21;71.08
6464;BME280;3265;42.694;23.282;2023-11-19T02:34:20;73549.84;;;-143.21;71.18
6464;BME280;3265;42.694;23.282;2023-11-19T02:36:47;73559.75;;;-143.21;71.87
6464;BME280;3265;42.694;23.282;2023-11-19T02:39:15;73563.72;;;-143.21;72.05
6464;BME280;3265;42.694;23.282;2023-11-19T02:41:46;73593.50;;;-143.21;72.15
6464;BME280;3265;42.694;23.282;2023-11-19T02:44:16;73593.50;;;-143.21;72.89
6464;BME280;3265;42.694;23.282;2023-11-19T02:46:44;73585.56;;;-143.21;72.61
6464;BME280;3265;42.694;23.282;2023-11-19T02:49:13;73585.56;;;-143.21;72.26
6464;BME280;3265;42.694;23.282;2023-11-19T02:51:40;73589.53;;;-143.21;72.26
6464;BME280;3265;42.694;23.282;2023-11-19T02:54:07;73581.59;;;-143.21;72.14
6464;BME280;3265;42.694;23.282;2023-11-19T02:56:35;73603.41;;;-143.21;72.67
6464;BME280;3265;42.694;23.282;2023-11-19T02:59:04;73599.44;;;-143.21;72.94
6464;BME280;3265;42.694;23.282;2023-11-19T03:01:40;73589.53;;;-143.21;72.42
6464;BME280;3265;42.694;23.282;2023-11-19T03:04:10;73599.44;;;-143.21;72.31
6464;BME280;3265;42.694;23.282;2023-11-19T03:06:38;73585.56;;;-143.21;71.94
6464;BME280;3265;42.694;23.282;2023-11-19T03:09:04;73591.50;;;-143.21;72.16
6464;BME280;3265;42.694;23.282;2023-11-19T03:11:35;73599.44;;;-143.21;72.18
6464;BME280;3265;42.694;23.282;2023-11-19T03:14:02;73607.38;;;-143.21;72.36
6464;BME280;3265;42.694;23.282;2023-11-19T03:16:30;73611.34;;;-143.21;72.27
6464;BME280;3265;42.694;23.282;2023-11-19T03:18:56;73603.41;;;-143.21;71.93
6464;BME280;3265;42.694;23.282;2023-11-19T03:21:29;73605.38;;;-143.21;72.23
6464;BME280;3265;42.694;23.282;2023-11-19T03:23:56;73617.28;;;-143.21;72.51
6464;BME280;3265;42.694;23.282;2023-11-19T03:26:25;73617.28;;;-143.21;72.73
6464;BME280;3265;42.694;23.282;2023-11-19T03:28:52;73625.22;;;-143.21;73.20
6464;BME280;3265;42.694;23.282;2023-11-19T03:31:19;73637.13;;;-143.21;73.25
6464;BME280;3265;42.694;23.282;2023-11-19T03:33:46;73627.22;;;-143.21;73.23
6464;BME280;3265;42.694;23.282;2023-11-19T03:36:13;73633.16;;;-143.21;73.28
6464;BME280;3265;42.694;23.282;2023-11-19T03:38:41;73633.16;;;-143.21;73.29
6464;BME280;3265;42.694;23.282;2023-11-19T03:41:11;73637.13;;;-143.21;73.31
6464;BME280;3265;42.694;23.282;2023-11-19T03:43:41;73637.13;;;-143.21;73.23
6464;BME280;3265;42.694;23.282;2023-11-19T03:46:17;73639.13;;;-143.21;72.85
6464;BME280;3265;42.694;23.282;2023-11-19T03:48:43;73639.13;;;-143.21;73.09
6464;BME280;3265;42.694;23.282;2023-11-19T03:51:11;73651.03;;;-143.21;73.20
6464;BME280;3265;42.694;23.282;2023-11-19T03:53:42;73653.00;;;-143.21;73.35
6464;BME280;3265;42.694;23.282;2023-11-19T03:56:09;73651.03;;;-143.21;73.05
6464;BME280;3265;42.694;23.282;2023-11-19T03:58:36;73647.06;;;-143.21;73.06
6464;BME280;3265;42.694;23.282;2023-11-19T04:01:04;73645.06;;;-143.21;72.84
6464;BME280;3265;42.694;23.282;2023-11-19T04:03:31;73625.22;;;-143.21;72.24
6464;BME280;3265;42.694;23.282;2023-11-19T04:05:58;73621.25;;;-143.21;71.81
6464;BME280;3265;42.694;23.282;2023-11-19T04:08:25;73635.16;;;-143.21;71.90
6464;BME280;3265;42.694;23.282;2023-11-19T04:10:53;73637.13;;;-143.21;72.33
6464;BME280;3265;42.694;23.282;2023-11-19T04:13:21;73627.22;;;-143.21;71.99
6464;BME280;3265;42.694;23.282;2023-11-19T04:15:50;73633.16;;;-143.21;71.85
6464;BME280;3265;42.694;23.282;2023-11-19T04:18:17;73635.16;;;-143.21;71.96
6464;BME280;3265;42.694;23.282;2023-11-19T04:20:43;73623.25;;;-143.21;71.81
6464;BME280;3265;42.694;23.282;2023-11-19T04:23:10;73629.19;;;-143.21;71.57
6464;BME280;3265;42.694;23.282;2023-11-19T04:25:37;73619.28;;;-143.21;71.41
6464;BME280;3265;42.694;23.282;2023-11-19T04:28:06;73619.28;;;-143.21;71.23
6464;BME280;3265;42.694;23.282;2023-11-19T04:30:33;73621.25;;;-143.21;71.23
6464;BME280;3265;42.694;23.282;2023-11-19T04:33:00;73617.28;;;-143.21;71.12
6464;BME280;3265;42.694;23.282;2023-11-19T04:35:27;73611.34;;;-143.21;70.68
6464;BME280;3265;42.694;23.282;2023-11-19T04:37:57;73617.28;;;-143.21;70.84
6464;BME280;3265;42.694;23.282;2023-11-19T04:40:27;73613.31;;;-143.21;71.02
6464;BME280;3265;42.694;23.282;2023-11-19T04:42:56;73629.19;;;-143.21;71.16
6464;BME280;3265;42.694;23.282;2023-11-19T04:45:29;73617.28;;;-143.21;71.28
6464;BME280;3265;42.694;23.282;2023-11-19T04:47:59;73613.31;;;-143.21;70.92
6464;BME280;3265;42.694;23.282;2023-11-19T04:50:26;73629.19;;;-143.21;71.16
6464;BME280;3265;42.694;23.282;2023-11-19T04:53:02;73629.19;;;-143.21;71.44
6464;BME280;3265;42.694;23.282;2023-11-19T04:55:43;73635.16;;;-143.21;71.40
6464;BME280;3265;42.694;23.282;2023-11-19T04:58:13;73639.13;;;-143.21;71.57
6464;BME280;3265;42.694;23.282;2023-11-19T05:00:41;73631.19;;;-143.21;71.19
6464;BME280;3265;42.694;23.282;2023-11-19T05:03:08;73639.13;;;-143.21;71.29
6464;BME280;3265;42.694;23.282;2023-11-19T05:05:34;73649.03;;;-143.21;71.33
6464;BME280;3265;42.694;23.282;2023-11-19T05:08:04;73643.09;;;-143.21;70.80
6464;BME280;3265;42.694;23.282;2023-11-19T05:10:33;73653.00;;;-143.21;70.55
6464;BME280;3265;42.694;23.282;2023-11-19T05:13:03;73664.91;;;-143.21;71.13
6464;BME280;3265;42.694;23.282;2023-11-19T05:15:30;73643.09;;;-143.21;70.97
6464;BME280;3265;42.694;23.282;2023-11-19T05:17:58;73641.09;;;-143.21;70.47
6464;BME280;3265;42.694;23.282;2023-11-19T05:20:25;73645.06;;;-143.21;70.72
6464;BME280;3265;42.694;23.282;2023-11-19T05:22:52;73627.22;;;-143.21;70.18
6464;BME280;3265;42.694;23.282;2023-11-19T05:25:19;73647.06;;;-143.21;70.45
6464;BME280;3265;42.694;23.282;2023-11-19T05:27:46;73635.16;;;-143.21;70.38
6464;BME280;3265;42.694;23.282;2023-11-19T05:30:13;73631.19;;;-143.21;70.51
6464;BME280;3265;42.694;23.282;2023-11-19T05:32:40;73641.09;;;-143.21;70.54
6464;BME280;3265;42.694;23.282;2023-11-19T05:35:10;73639.13;;;-143.21;70.30
6464;BME280;3265;42.694;23.282;2023-11-19T05:37:38;73643.09;;;-143.21;70.19
6464;BME280;3265;42.694;23.282;2023-11-19T05:40:06;73649.03;;;-143.21;70.40
6464;BME280;3265;42.694;23.282;2023-11-19T05:42:39;73647.06;;;-143.21;70.38
6464;BME280;3265;42.694;23.282;2023-11-19T05:45:07;73653.00;;;-143.21;70.10
6464;BME280;3265;42.694;23.282;2023-11-19T05:47:34;73672.84;;;-143.21;70.71
6464;BME280;3265;42.694;23.282;2023-11-19T05:50:02;73660.94;;;-143.21;70.71
6464;BME280;3265;42.694;23.282;2023-11-19T05:52:31;73658.97;;;-143.21;70.42
6464;BME280;3265;42.694;23.282;2023-11-19T05:55:02;73658.97;;;-143.21;70.44
6464;BME280;3265;42.694;23.282;2023-11-19T05:57:29;73674.81;;;-143.21;71.05
6464;BME280;3265;42.694;23.282;2023-11-19T05:59:56;73680.78;;;-143.21;71.02
6464;BME280;3265;42.694;23.282;2023-11-19T06:02:24;73692.69;;;-143.21;71.21
6464;BME280;3265;42.694;23.282;2023-11-19T06:04:52;73698.63;;;-143.21;71.34
6464;BME280;3265;42.694;23.282;2023-11-19T06:07:19;73694.66;;;-143.21;71.26
6464;BME280;3265;42.694;23.282;2023-11-19T06:09:47;73708.56;;;-143.21;71.25
6464;BME280;3265;42.694;23.282;2023-11-19T06:12:14;73702.59;;;-143.21;71.32
6464;BME280;3265;42.694;23.282;2023-11-19T06:14:41;73696.66;;;-143.21;71.13
6464;BME280;3265;42.694;23.282;2023-11-19T06:17:08;73682.75;;;-143.21;71.18
6464;BME280;3265;42.694;23.282;2023-11-19T06:19:36;73692.69;;;-143.21;71.17
6464;BME280;3265;42.694;23.282;2023-11-19T06:22:03;73692.69;;;-143.21;71.28
6464;BME280;3265;42.694;23.282;2023-11-19T06:24:30;73684.75;;;-143.21;71.64
6464;BME280;3265;42.694;23.282;2023-11-19T06:26:58;73694.66;;;-143.21;71.54
6464;BME280;3265;42.694;23.282;2023-11-19T06:29:25;73690.69;;;-143.21;70.98
6464;BME280;3265;42.694;23.282;2023-11-19T06:31:52;73706.56;;;-143.21;71.13
6464;BME280;3265;42.694;23.282;2023-11-19T06:34:19;73686.72;;;-143.21;71.05
6464;BME280;3265;42.694;23.282;2023-11-19T06:36:45;73696.66;;;-143.21;70.90
6464;BME280;3265;42.694;23.282;2023-11-19T06:39:13;73716.50;;;-143.21;71.29
6464;BME280;3265;42.694;23.282;2023-11-19T06:41:44;73708.56;;;-143.21;71.31
6464;BME280;3265;42.694;23.282;2023-11-19T06:44:13;73710.53;;;-143.21;70.97
6464;BME280;3265;42.694;23.282;2023-11-19T06:46:42;73724.44;;;-143.21;71.41
6464;BME280;3265;42.694;23.282;2023-11-19T06:49:09;73736.34;;;-143.21;71.33
6464;BME280;3265;42.694;23.282;2023-11-19T06:51:45;73736.34;;;-143.21;71.90
6464;BME280;3265;42.694;23.282;2023-11-19T06:54:15;73734.34;;;-143.21;71.36
6464;BME280;3265;42.694;23.282;2023-11-19T06:56:41;73738.31;;;-143.21;71.25
6464;BME280;3265;42.694;23.282;2023-11-19T06:59:09;73730.38;;;-143.21;71.24
6464;BME280;3265;42.694;23.282;2023-11-19T07:01:38;73720.47;;;-143.21;70.92
6464;BME280;3265;42.694;23.282;2023-11-19T07:04:10;73736.34;;;-143.21;70.84
6464;BME280;3265;42.694;23.282;2023-11-19T07:06:40;73732.38;;;-143.21;70.66
6464;BME280;3265;42.694;23.282;2023-11-19T07:09:19;73744.25;;;-143.21;71.17
6464;BME280;3265;42.694;23.282;2023-11-19T07:11:46;73748.22;;;-143.21;71.21
6464;BME280;3265;42.694;23.282;2023-11-19T07:14:15;73726.41;;;-143.21;70.73
6464;BME280;3265;42.694;23.282;2023-11-19T07:16:44;73730.38;;;-143.21;70.60
6464;BME280;3265;42.694;23.282;2023-11-19T07:19:11;73744.25;;;-143.21;70.47
6464;BME280;3265;42.694;23.282;2023-11-19T07:21:41;73736.34;;;-143.21;70.88
6464;BME280;3265;42.694;23.282;2023-11-19T07:24:09;73734.34;;;-143.21;70.89
6464;BME280;3265;42.694;23.282;2023-11-19T07:26:41;73726.41;;;-143.21;70.84
6464;BME280;3265;42.694;23.282;2023-11-19T07:29:08;73726.41;;;-143.21;70.56
6464;BME280;3265;42.694;23.282;2023-11-19T07:31:35;73738.31;;;-143.21;70.62
6464;BME280;3265;42.694;23.282;2023-11-19T07:34:04;73722.44;;;-143.21;70.24
6464;BME280;3265;42.694;23.282;2023-11-19T07:36:32;73730.38;;;-143.21;69.25
6464;BME280;3265;42.694;23.282;2023-11-19T07:38:58;73742.28;;;-143.21;69.70
6464;BME280;3265;42.694;23.282;2023-11-19T07:41:25;73730.38;;;-143.21;69.97
6464;BME280;3265;42.694;23.282;2023-11-19T07:43:52;73734.34;;;-143.21;70.17
6464;BME280;3265;42.694;23.282;2023-11-19T07:46:20;73720.47;;;-143.21;69.62
6464;BME280;3265;42.694;23.282;2023-11-19T07:48:46;73728.41;;;-143.21;70.01
6464;BME280;3265;42.694;23.282;2023-11-19T07:51:15;73724.44;;;-143.21;69.68
6464;BME280;3265;42.694;23.282;2023-11-19T07:53:42;73726.41;;;-143.21;69.48
6464;BME280;3265;42.694;23.282;2023-11-19T07:56:09;73730.38;;;-143.21;69.12
6464;BME280;3265;42.694;23.282;2023-11-19T07:58:36;73720.47;;;-143.21;69.26
6464;BME280;3265;42.694;23.282;2023-11-19T08:01:03;73702.59;;;-143.21;68.51
6464;BME280;3265;42.694;23.282;2023-11-19T08:03:30;73716.50;;;-143.21;69.13
6464;BME280;3265;42.694;23.282;2023-11-19T08:05:57;73730.38;;;-143.21;68.76
6464;BME280;3265;42.694;23.282;2023-11-19T08:08:26;73748.22;;;-143.21;68.98
6464;BME280;3265;42.694;23.282;2023-11-19T08:10:55;73734.34;;;-143.21;68.86
6464;BME280;3265;42.694;23.282;2023-11-19T08:13:23;73742.28;;;-143.21;68.98
6464;BME280;3265;42.694;23.282;2023-11-19T08:15:50;73752.19;;;-143.21;69.28
6464;BME280;3265;42.694;23.282;2023-11-19T08:18:18;73756.16;;;-143.21;69.45
6464;BME280;3265;42.694;23.282;2023-11-19T08:20:45;73770.06;;;-143.21;69.39
6464;BME280;3265;42.694;23.282;2023-11-19T08:23:15;73778.00;;;-143.21;69.80
6464;BME280;3265;42.694;23.282;2023-11-19T08:25:44;73783.94;;;-143.21;69.95
6464;BME280;3265;42.694;23.282;2023-11-19T08:28:11;73789.91;;;-143.21;70.06
6464;BME280;3265;42.694;23.282;2023-11-19T08:30:40;73779.97;;;-143.21;69.55
6464;BME280;3265;42.694;23.282;2023-11-19T08:33:09;73783.94;;;-143.21;69.74
6464;BME280;3265;42.694;23.282;2023-11-19T08:35:37;73762.13;;;-143.21;69.76
6464;BME280;3265;42.694;23.282;2023-11-19T08:38:11;73774.03;;;-143.21;69.37
6464;BME280;3265;42.694;23.282;2023-11-19T08:40:48;73778.00;;;-143.21;69.38
6464;BME280;3265;42.694;23.282;2023-11-19T08:43:15;73779.97;;;-143.21;69.16
6464;BME280;3265;42.694;23.282;2023-11-19T08:45:42;73778.00;;;-143.21;69.03
6464;BME280;3265;42.694;23.282;2023-11-19T08:48:11;73762.13;;;-143.21;69.23
6464;BME280;3265;42.694;23.282;2023-11-19T08:50:39;73768.06;;;-143.21;68.97
6464;BME280;3265;42.694;23.282;2023-11-19T08:53:06;73748.22;;;-143.21;68.50
6464;BME280;3265;42.694;23.282;2023-11-19T08:55:34;73760.13;;;-143.21;68.45
6464;BME280;3265;42.694;23.282;2023-11-19T08:58:04;73774.03;;;-143.21;68.43
6464;BME280;3265;42.694;23.282;2023-11-19T09:00:31;73770.06;;;-143.21;68.69
6464;BME280;3265;42.694;23.282;2023-11-19T09:02:58;73758.16;;;-143.21;68.75
6464;BME280;3265;42.694;23.282;2023-11-19T09:05:30;73748.22;;;-143.21;68.74
6464;BME280;3265;42.694;23.282;2023-11-19T09:07:56;73758.16;;;-143.21;68.69
6464;BME280;3265;42.694;23.282;2023-11-19T09:10:24;73736.34;;;-143.21;69.08
6464;BME280;3265;42.694;23.282;2023-11-19T09:12:52;73720.47;;;-143.21;68.82
6464;BME280;3265;42.694;23.282;2023-11-19T09:15:20;73704.59;;;-143.21;68.71
6464;BME280;3265;42.694;23.282;2023-11-19T09:17:47;73696.66;;;-143.21;68.30
6464;BME280;3265;42.694;23.282;2023-11-19T09:20:15;73708.56;;;-143.21;68.22
6464;BME280;3265;42.694;23.282;2023-11-19T09:22:44;73714.50;;;-143.21;67.91
6464;BME280;3265;42.694;23.282;2023-11-19T09:25:11;73708.56;;;-143.21;68.04
6464;BME280;3265;42.694;23.282;2023-11-19T09:27:42;73716.50;;;-143.21;67.84
6464;BME280;3265;42.694;23.282;2023-11-19T09:30:10;73710.53;;;-143.21;67.54
6464;BME280;3265;42.694;23.282;2023-11-19T09:32:38;73704.59;;;-143.21;67.78
6464;BME280;3265;42.694;23.282;2023-11-19T09:35:06;73690.69;;;-143.21;67.68
6464;BME280;3265;42.694;23.282;2023-11-19T09:37:33;73690.69;;;-143.21;68.26
6464;BME280;3265;42.694;23.282;2023-11-19T09:39:59;73672.84;;;-143.21;67.47
6464;BME280;3265;42.694;23.282;2023-11-19T09:42:26;73678.78;;;-143.21;66.79
6464;BME280;3265;42.694;23.282;2023-11-19T09:44:56;73684.75;;;-143.21;67.08
6464;BME280;3265;42.694;23.282;2023-11-19T09:47:25;73678.78;;;-143.21;67.15
6464;BME280;3265;42.694;23.282;2023-11-19T09:49:56;73676.81;;;-143.21;67.31
6464;BME280;3265;42.694;23.282;2023-11-19T09:52:23;73655.00;;;-143.21;67.04
6464;BME280;3265;42.694;23.282;2023-11-19T09:54:50;73655.00;;;-143.21;67.29
6464;BME280;3265;42.694;23.282;2023-11-19T09:57:19;73656.97;;;-143.21;67.19
6464;BME280;3265;42.694;23.282;2023-11-19T09:59:46;73653.00;;;-143.21;67.61
6464;BME280;3265;42.694;23.282;2023-11-19T10:02:14;73651.03;;;-143.21;67.69
6464;BME280;3265;42.694;23.282;2023-11-19T10:04:42;73619.28;;;-143.21;67.09
6464;BME280;3265;42.694;23.282;2023-11-19T10:07:11;73601.41;;;-143.21;66.64
6464;BME280;3265;42.694;23.282;2023-11-19T10:09:38;73597.47;;;-143.21;66.54
6464;BME280;3265;42.694;23.282;2023-11-19T10:12:05;73597.47;;;-143.21;66.06
6464;BME280;3265;42.694;23.282;2023-11-19T10:14:34;73603.41;;;-143.21;65.09
6464;BME280;3265;42.694;23.282;2023-11-19T10:17:07;73609.34;;;-143.21;65.27
6464;BME280;3265;42.694;23.282;2023-11-19T10:19:34;73621.25;;;-143.21;65.58
6464;BME280;3265;42.694;23.282;2023-11-19T10:22:04;73625.22;;;-143.21;66.22
6464;BME280;3265;42.694;23.282;2023-11-19T10:24:33;73633.16;;;-143.21;66.63
6464;BME280;3265;42.694;23.282;2023-11-19T10:27:01;73627.22;;;-143.21;67.01
6464;BME280;3265;42.694;23.282;2023-11-19T10:29:29;73627.22;;;-143.21;66.74
6464;BME280;3265;42.694;23.282;2023-11-19T10:31:56;73613.31;;;-143.21;66.40
6464;BME280;3265;42.694;23.282;2023-11-19T10:34:25;73621.25;;;-143.21;66.85
6464;BME280;3265;42.694;23.282;2023-11-19T10:36:52;73627.22;;;-143.21;66.95
6464;BME280;3265;42.694;23.282;2023-11-19T10:39:19;73609.34;;;-143.21;66.88
6464;BME280;3265;42.694;23.282;2023-11-19T10:41:50;73579.59;;;-143.21;66.32
6464;BME280;3265;42.694;23.282;2023-11-19T10:44:32;73478.41;;;-143.21;64.54
6464;BME280;3265;42.694;23.282;2023-11-19T10:47:01;73418.91;;;-143.21;62.48
6464;BME280;3265;42.694;23.282;2023-11-19T10:49:28;73393.13;;;-143.21;61.94
6464;BME280;3265;42.694;23.282;2023-11-19T10:51:55;73345.50;;;-143.21;61.70
6464;BME280;3265;42.694;23.282;2023-11-19T10:54:24;73252.28;;;-143.21;59.24
6464;BME280;3265;42.694;23.282;2023-11-19T10:56:58;73224.50;;;-143.21;58.46
6464;BME280;3265;42.694;23.282;2023-11-19T10:59:29;73200.69;;;-143.21;58.03
6464;BME280;3265;42.694;23.282;2023-11-19T11:01:57;73129.28;;;-143.21;56.81
6464;BME280;3265;42.694;23.282;2023-11-19T11:04:25;73145.16;;;-143.21;56.11
6464;BME280;3265;42.694;23.282;2023-11-19T11:06:54;73047.97;;;-143.21;55.38
6464;BME280;3265;42.694;23.282;2023-11-19T11:09:26;72942.84;;;-143.21;52.59
6464;BME280;3265;42.694;23.282;2023-11-19T11:11:57;72863.50;;;-143.21;51.39
6464;BME280;3265;42.694;23.282;2023-11-19T11:14:27;72796.06;;;-143.21;50.68
6464;BME280;3265;42.694;23.282;2023-11-19T11:16:56;72732.59;;;-143.21;49.29
6464;BME280;3265;42.694;23.282;2023-11-19T11:19:24;72716.72;;;-143.21;48.48
6464;BME280;3265;42.694;23.282;2023-11-19T11:21:53;72770.28;;;-143.21;48.44
6464;BME280;3265;42.694;23.282;2023-11-19T11:24:37;72819.84;;;-143.21;49.02
6464;BME280;3265;42.694;23.282;2023-11-19T11:27:30;72792.09;;;-143.21;49.00
6464;BME280;3265;42.694;23.282;2023-11-19T11:30:08;72807.97;;;-143.21;49.04
6464;BME280;3265;42.694;23.282;2023-11-19T11:32:42;72811.94;;;-143.21;48.52
6464;BME280;3265;42.694;23.282;2023-11-19T11:35:24;72823.81;;;-143.21;49.27
6464;BME280;3265;42.694;23.282;2023-11-19T11:38:00;72746.47;;;-143.21;48.62
6464;BME280;3265;42.694;23.282;2023-11-19T11:40:28;72690.94;;;-143.21;47.30
6464;BME280;3265;42.694;23.282;2023-11-19T11:42:56;72675.06;;;-143.21;46.77
6464;BME280;3265;42.694;23.282;2023-11-19T11:45:38;72653.25;;;-143.21;46.74
6464;BME280;3265;42.694;23.282;2023-11-19T11:48:12;72710.78;;;-143.21;47.36
6464;BME280;3265;42.694;23.282;2023-11-19T11:51:04;72661.19;;;-143.21;46.63
6464;BME280;3265;42.694;23.282;2023-11-19T11:53:35;72653.25;;;-143.21;46.58
6464;BME280;3265;42.694;23.282;2023-11-19T11:56:02;72639.38;;;-143.21;46.60
6464;BME280;3265;42.694;23.282;2023-11-19T11:58:35;72597.72;;;-143.21;45.74
6464;BME280;3265;42.694;23.282;2023-11-19T12:01:04;72550.13;;;-143.21;44.77
6464;BME280;3265;42.694;23.282;2023-11-19T12:03:32;72492.59;;;-143.21;44.24
6464;BME280;3265;42.694;23.282;2023-11-19T12:06:02;72419.22;;;-143.21;43.05
6464;BME280;3265;42.694;23.282;2023-11-19T12:08:29;72381.53;;;-143.21;41.47
6464;BME280;3265;42.694;23.282;2023-11-19T12:10:57;72324.03;;;-143.21;40.78
6464;BME280;3265;42.694;23.282;2023-11-19T12:16:14;72260.56;;;-143.21;39.37
6464;BME280;3265;42.694;23.282;2023-11-19T12:18:41;72272.47;;;-143.21;39.48
6464;BME280;3265;42.694;23.282;2023-11-19T12:21:08;72282.38;;;-143.21;39.44
6464;BME280;3265;42.694;23.282;2023-11-19T12:23:45;72284.38;;;-143.21;39.81
6464;BME280;3265;42.694;23.282;2023-11-19T12:26:35;72272.47;;;-143.21;39.26
6464;BME280;3265;42.694;23.282;2023-11-19T12:29:02;72201.09;;;-143.21;39.63
6464;BME280;3265;42.694;23.282;2023-11-19T12:31:34;72161.41;;;-143.21;38.24
6464;BME280;3265;42.694;23.282;2023-11-19T12:34:10;72141.59;;;-143.21;38.12
6464;BME280;3265;42.694;23.282;2023-11-19T12:36:39;72090.03;;;-143.21;37.52
6464;BME280;3265;42.694;23.282;2023-11-19T12:39:07;72115.81;;;-143.21;37.12
6464;BME280;3265;42.694;23.282;2023-11-19T12:41:49;72131.69;;;-143.21;37.63
6464;BME280;3265;42.694;23.282;2023-11-19T12:44:16;72113.81;;;-143.21;37.90
6464;BME280;3265;42.694;23.282;2023-11-19T12:46:44;72123.75;;;-143.21;37.52
6464;BME280;3265;42.694;23.282;2023-11-19T12:49:11;72159.44;;;-143.21;37.44
6464;BME280;3265;42.694;23.282;2023-11-19T12:51:38;72248.66;;;-143.21;38.58
6464;BME280;3265;42.694;23.282;2023-11-19T12:54:05;72284.38;;;-143.21;39.00
6464;BME280;3265;42.694;23.282;2023-11-19T12:56:32;72331.97;;;-143.21;39.63
6464;BME280;3265;42.694;23.282;2023-11-19T12:59:10;72329.97;;;-143.21;39.93
6464;BME280;3265;42.694;23.282;2023-11-19T13:01:37;72302.22;;;-143.21;39.93